createdAt,value
2023-05-02T00:00:46.638Z,99852.31
2023-05-02T00:04:49.662Z,99858.59
2023-05-02T00:08:53.086Z,99846.66
2023-05-02T00:12:54.750Z,99845.75
2023-05-02T00:16:56.486Z,99848.19
2023-05-02T00:20:58.255Z,99856.06
2023-05-02T00:24:59.955Z,99851.53
2023-05-02T00:29:01.669Z,99855.75
2023-05-02T00:33:03.714Z,99852.28
2023-05-02T00:37:05.479Z,99868.09
2023-05-02T00:41:07.573Z,99862.91
2023-05-02T00:45:09.617Z,99855.56
2023-05-02T00:49:11.481Z,99857.59
2023-05-02T00:53:13.138Z,99858.50
2023-05-02T00:57:14.836Z,99861.94
2023-05-02T01:01:53.852Z,99866.19
2023-05-02T01:06:04.582Z,99875.13
2023-05-02T01:10:09.459Z,99871.66
2023-05-02T01:14:12.079Z,99879.47
2023-05-02T01:18:18.663Z,99882.06
2023-05-02T01:22:22.614Z,99891.63
2023-05-02T01:26:41.234Z,99897.75
2023-05-02T01:30:44.755Z,99901.50
2023-05-02T01:34:47.452Z,99915.75
2023-05-02T01:38:50.834Z,99907.38
2023-05-02T01:42:53.811Z,99905.34
2023-05-02T01:46:56.427Z,99913.53
2023-05-02T01:50:58.864Z,99921.91
2023-05-02T01:55:01.314Z,99922.63
2023-05-02T01:59:06.549Z,99937.09
2023-05-02T02:03:10.618Z,99943.34
2023-05-02T02:07:14.152Z,99939.88
2023-05-02T02:11:22.231Z,99951.34
2023-05-02T02:15:28.897Z,99955.66
2023-05-02T02:19:32.186Z,99955.31
2023-05-02T02:23:36.878Z,99957.72
2023-05-02T02:27:38.764Z,99962.47
2023-05-02T02:31:40.643Z,99961.28
2023-05-02T02:35:48.524Z,99965.13
2023-05-02T02:40:01.143Z,99964.53
2023-05-02T02:44:24.371Z,99976.84
2023-05-02T02:48:35.013Z,99975.38
2023-05-02T02:52:36.659Z,99973.38
2023-05-02T02:56:42.009Z,99976.81
2023-05-02T03:00:45.050Z,99983.63
2023-05-02T03:04:47.685Z,99990.69
2023-05-02T03:08:49.355Z,99994.13
2023-05-02T03:12:56.052Z,99999.25
2023-05-02T03:16:59.125Z,100001.88
2023-05-02T03:21:02.215Z,99998.75
2023-05-02T03:25:04.091Z,100006.38
2023-05-02T03:29:06.007Z,100006.63
2023-05-02T03:33:13.193Z,100009.59
2023-05-02T03:37:18.139Z,100011.53
2023-05-02T03:41:21.112Z,100014.25
2023-05-02T03:45:28.910Z,100027.31
2023-05-02T03:49:30.744Z,100037.75
2023-05-02T03:53:33.049Z,100036.59
2023-05-02T03:57:34.863Z,100048.91
2023-05-02T04:01:37.738Z,100059.34
2023-05-02T04:05:40.687Z,100058.16
2023-05-02T04:09:43.621Z,100069.53
2023-05-02T04:13:46.834Z,100066.66
2023-05-02T04:17:48.650Z,100071.81
2023-05-02T04:21:51.529Z,100070.88
2023-05-02T04:25:56.817Z,100077.00
2023-05-02T04:30:10.794Z,100084.16
2023-05-02T04:34:13.137Z,100085.69
2023-05-02T04:38:18.913Z,100099.34
2023-05-02T04:42:24.082Z,100105.53
2023-05-02T04:46:38.219Z,100107.94
2023-05-02T04:50:40.141Z,100118.59
2023-05-02T04:54:42.236Z,100126.88
2023-05-02T04:58:44.685Z,100132.25
2023-05-02T05:02:50.682Z,100141.25
2023-05-02T05:06:52.885Z,100139.59
2023-05-02T05:10:57.654Z,100144.63
2023-05-02T05:15:00.295Z,100157.00
2023-05-02T05:19:04.478Z,100164.78
2023-05-02T05:23:07.594Z,100166.78
2023-05-02T05:27:10.265Z,100177.44
2023-05-02T05:31:16.059Z,100178.63
2023-05-02T05:35:21.942Z,100189.59
2023-05-02T05:39:25.182Z,100192.22
2023-05-02T05:43:29.445Z,100199.03
2023-05-02T05:47:31.625Z,100208.34
2023-05-02T05:51:33.620Z,100215.25
2023-05-02T05:55:37.513Z,100217.22
2023-05-02T05:59:40.360Z,100225.53
2023-05-02T06:03:43.280Z,100227.44
2023-05-02T06:07:45.209Z,100223.94
2023-05-02T06:11:50.197Z,100233.00
2023-05-02T06:15:52.803Z,100226.06
2023-05-02T06:19:54.630Z,100227.13
2023-05-02T06:23:56.388Z,100232.66
2023-05-02T06:27:58.119Z,100244.97
2023-05-02T06:31:59.860Z,100248.78
2023-05-02T06:36:02.434Z,100253.78
2023-05-02T06:40:05.534Z,100255.91
2023-05-02T06:44:07.316Z,100258.47
2023-05-02T06:48:09.503Z,100265.47
2023-05-02T06:52:11.333Z,100263.16
2023-05-02T06:56:13.033Z,100268.56
2023-05-02T07:00:16.836Z,100266.72
2023-05-02T07:04:22.070Z,100273.16
2023-05-02T07:08:24.298Z,100270.66
2023-05-02T07:12:26.544Z,100282.88
2023-05-02T07:16:31.627Z,100286.28
2023-05-02T07:20:33.571Z,100292.06
2023-05-02T07:24:35.418Z,100288.22
2023-05-02T07:28:37.146Z,100291.91
2023-05-02T07:32:40.000Z,100303.75
2023-05-02T07:36:41.857Z,100303.59
2023-05-02T07:40:43.774Z,100301.91
2023-05-02T07:44:45.620Z,100311.22
2023-05-02T07:48:47.348Z,100309.91
2023-05-02T07:52:49.086Z,100307.41
2023-05-02T07:56:50.819Z,100313.16
2023-05-02T08:00:52.493Z,100312.13
2023-05-02T08:04:54.305Z,100316.97
2023-05-02T08:08:56.874Z,100319.41
2023-05-02T08:12:58.587Z,100321.03
2023-05-02T08:17:01.059Z,100331.03
2023-05-02T08:21:02.736Z,100326.75
2023-05-02T08:25:04.748Z,100329.53
2023-05-02T08:29:06.654Z,100336.72
2023-05-02T08:33:08.396Z,100328.06
2023-05-02T08:37:11.009Z,100339.84
2023-05-02T08:41:17.972Z,100343.44
2023-05-02T08:45:20.130Z,100351.16
2023-05-02T08:49:22.984Z,100351.25
2023-05-02T08:53:25.154Z,100363.41
2023-05-02T08:57:29.628Z,100362.28
2023-05-02T09:01:33.538Z,100377.31
2023-05-02T09:05:41.175Z,100384.59
2023-05-02T09:09:42.989Z,100376.97
2023-05-02T09:13:53.679Z,100383.78
2023-05-02T09:17:55.745Z,100387.03
2023-05-02T09:22:01.647Z,100397.31
2023-05-02T09:26:15.069Z,100397.56
2023-05-02T09:30:22.401Z,100409.09
2023-05-02T09:34:24.173Z,100406.38
2023-05-02T09:38:26.003Z,100410.03
2023-05-02T09:42:31.414Z,100408.69
2023-05-02T09:46:49.936Z,100407.88
2023-05-02T09:50:53.020Z,100415.41
2023-05-02T09:54:56.653Z,100418.44
2023-05-02T09:59:17.251Z,100415.16
2023-05-02T10:03:19.926Z,100415.13
2023-05-02T10:07:21.724Z,100418.16
2023-05-02T10:11:25.335Z,100415.13
2023-05-02T10:15:29.505Z,100422.41
2023-05-02T10:19:39.369Z,100419.94
2023-05-02T10:23:45.604Z,100416.22
2023-05-02T10:27:48.545Z,100410.41
2023-05-02T10:31:50.887Z,100414.84
2023-05-02T10:35:52.632Z,100414.41
2023-05-02T10:39:56.620Z,100411.13
2023-05-02T10:44:00.573Z,100410.88
2023-05-02T10:48:19.147Z,100405.38
2023-05-02T10:52:29.771Z,100409.25
2023-05-02T10:56:31.501Z,100407.09
2023-05-02T11:00:34.418Z,100410.41
2023-05-02T11:05:05.944Z,100404.69
2023-05-02T11:09:14.784Z,100399.66
2023-05-02T11:13:16.631Z,100400.19
2023-05-02T11:17:18.668Z,100403.75
2023-05-02T11:21:31.363Z,100404.34
2023-05-02T11:25:38.117Z,100409.47
2023-05-02T11:29:59.618Z,100415.69
2023-05-02T11:34:02.588Z,100408.22
2023-05-02T11:38:08.799Z,100395.69
2023-05-02T11:42:10.667Z,100393.91
2023-05-02T11:46:12.778Z,100391.88
2023-05-02T11:50:15.663Z,100384.72
2023-05-02T11:54:21.591Z,100382.06
2023-05-02T11:58:35.067Z,100380.56
2023-05-02T12:02:37.801Z,100387.69
2023-05-02T12:06:54.909Z,100386.19
2023-05-02T12:10:59.588Z,100395.69
2023-05-02T12:15:08.812Z,100385.97
2023-05-02T12:19:10.622Z,100392.75
2023-05-02T12:23:13.110Z,100382.50
2023-05-02T12:27:15.658Z,100381.16
2023-05-02T12:31:17.289Z,100379.41
2023-05-02T12:35:23.323Z,100375.78
2023-05-02T12:39:41.947Z,100377.56
2023-05-02T12:43:47.080Z,100371.28
2023-05-02T12:47:48.784Z,100374.44
2023-05-02T12:51:55.895Z,100375.56
2023-05-02T12:56:07.442Z,100379.19
2023-05-02T13:00:10.225Z,100372.91
2023-05-02T13:04:11.946Z,100381.66
2023-05-02T13:08:13.750Z,100381.06
2023-05-02T13:12:15.417Z,100385.69
2023-05-02T13:16:17.342Z,100389.00
2023-05-02T13:20:19.325Z,100401.50
2023-05-02T13:24:21.326Z,100411.28
2023-05-02T13:28:23.209Z,100407.22
2023-05-02T13:32:29.244Z,100407.28
2023-05-02T13:36:31.084Z,100403.88
2023-05-02T13:40:32.896Z,100407.47
2023-05-02T13:44:34.530Z,100408.16
2023-05-02T13:48:37.580Z,100410.03
2023-05-02T13:52:39.408Z,100404.13
2023-05-02T13:56:41.636Z,100399.56
2023-05-02T14:00:43.424Z,100400.13
2023-05-02T14:04:46.622Z,100410.66
2023-05-02T14:08:48.276Z,100411.94
2023-05-02T14:12:50.090Z,100409.88
2023-05-02T14:16:51.909Z,100414.47
2023-05-02T14:20:53.706Z,100415.78
2023-05-02T14:24:55.599Z,100413.03
2023-05-02T14:28:57.412Z,100413.88
2023-05-02T14:32:59.164Z,100412.16
2023-05-02T14:37:00.957Z,100424.03
2023-05-02T14:41:04.767Z,100430.09
2023-05-02T14:45:07.810Z,100429.06
2023-05-02T14:49:11.930Z,100429.34
2023-05-02T14:53:15.116Z,100434.38
2023-05-02T15:01:49.598Z,100426.78
2023-05-02T15:05:54.707Z,100427.88
2023-05-02T15:09:58.609Z,100423.06
2023-05-02T15:14:06.183Z,100427.56
2023-05-02T15:18:08.143Z,100430.97
2023-05-02T15:22:12.338Z,100431.28
2023-05-02T15:30:46.949Z,100429.13
2023-05-02T15:34:51.654Z,100429.34
2023-05-02T15:38:59.949Z,100431.56
2023-05-02T15:43:10.976Z,100431.53
2023-05-02T15:47:13.968Z,100431.28
2023-05-02T15:51:16.564Z,100441.06
2023-05-02T15:59:45.623Z,100441.63
2023-05-02T16:03:52.160Z,100443.00
2023-05-02T16:07:56.475Z,100445.22
2023-05-02T16:12:06.361Z,100449.59
2023-05-02T16:16:10.268Z,100455.13
2023-05-02T16:20:16.998Z,100456.34
2023-05-02T16:28:41.625Z,100456.25
2023-05-02T16:32:45.359Z,100455.63
2023-05-02T16:36:51.830Z,100457.84
2023-05-02T16:40:54.133Z,100464.13
2023-05-02T16:44:57.896Z,100471.72
2023-05-02T16:49:08.423Z,100467.56
2023-05-02T16:53:10.953Z,100469.78
2023-05-02T16:57:20.028Z,100471.75
2023-05-02T17:01:24.164Z,100474.25
2023-05-02T17:05:28.666Z,100474.78
2023-05-02T17:09:31.436Z,100480.63
2023-05-02T17:13:34.537Z,100478.34
2023-05-02T17:17:38.081Z,100480.50
2023-05-02T17:21:43.777Z,100477.44
2023-05-02T17:25:45.771Z,100491.81
2023-05-02T17:29:49.124Z,100498.47
2023-05-02T17:33:58.452Z,100494.22
2023-05-02T17:38:06.505Z,100500.53
2023-05-02T17:52:51.965Z,100508.59
2023-05-02T17:56:58.334Z,100518.47
2023-05-02T18:01:11.500Z,100526.38
2023-05-02T18:05:15.499Z,100528.69
2023-05-02T18:09:21.995Z,100532.31
2023-05-02T18:13:26.222Z,100526.16
2023-05-02T18:17:28.235Z,100530.13
2023-05-02T18:21:31.930Z,100532.34
2023-05-02T18:25:35.953Z,100535.38
2023-05-02T18:29:37.797Z,100552.28
2023-05-02T18:33:41.558Z,100551.22
2023-05-02T18:37:43.367Z,100548.47
2023-05-02T18:41:45.141Z,100556.44
2023-05-02T18:45:48.730Z,100563.97
2023-05-02T18:49:50.699Z,100571.88
2023-05-02T18:53:52.609Z,100586.50
2023-05-02T18:57:54.384Z,100587.69
2023-05-02T19:01:56.729Z,100595.06
2023-05-02T19:05:58.486Z,100601.09
2023-05-02T19:10:00.363Z,100614.44
2023-05-02T19:14:03.881Z,100626.94
2023-05-02T19:18:05.619Z,100631.16
2023-05-02T19:22:07.730Z,100641.97
2023-05-02T19:26:16.571Z,100649.16
2023-05-02T19:30:18.857Z,100649.84
2023-05-02T19:34:20.987Z,100650.88
2023-05-02T19:38:24.174Z,100665.47
2023-05-02T19:42:25.937Z,100670.13
2023-05-02T19:46:27.837Z,100678.59
2023-05-02T19:50:30.957Z,100679.63
2023-05-02T19:54:33.576Z,100688.69
2023-05-02T19:58:35.404Z,100685.47
2023-05-02T20:02:37.404Z,100694.50
2023-05-02T20:06:39.292Z,100699.56
2023-05-02T20:10:41.252Z,100701.78
2023-05-02T20:14:47.467Z,100704.81
2023-05-02T20:18:49.337Z,100712.31
2023-05-02T20:22:51.911Z,100707.09
2023-05-02T20:26:53.725Z,100712.22
2023-05-02T20:30:55.716Z,100716.56
2023-05-02T20:34:57.849Z,100715.16
2023-05-02T20:38:59.650Z,100730.88
2023-05-02T20:43:02.420Z,100723.75
2023-05-02T20:47:04.161Z,100730.97
2023-05-02T20:51:07.617Z,100722.97
2023-05-02T20:55:09.804Z,100726.44
2023-05-02T20:59:12.102Z,100730.31
2023-05-02T21:03:13.747Z,100739.44
2023-05-02T21:07:18.772Z,100737.38
2023-05-02T21:11:20.505Z,100741.44
2023-05-02T21:15:22.488Z,100747.81
2023-05-02T21:19:24.119Z,100750.38
2023-05-02T21:23:26.412Z,100747.22
2023-05-02T21:27:28.239Z,100739.84
2023-05-02T21:31:32.299Z,100749.78
2023-05-02T21:35:34.311Z,100758.28
2023-05-02T21:39:36.140Z,100759.75
2023-05-02T21:43:41.605Z,100759.19
2023-05-02T21:47:44.619Z,100761.06
2023-05-02T21:51:46.472Z,100759.41
2023-05-02T21:55:48.273Z,100757.28
2023-05-02T21:59:50.142Z,100757.06
2023-05-02T22:03:51.947Z,100759.00
2023-05-02T22:07:53.665Z,100764.47
2023-05-02T22:11:55.617Z,100760.88
2023-05-02T22:15:57.247Z,100761.94
2023-05-02T22:19:58.886Z,100757.91
2023-05-02T22:24:00.600Z,100770.16
2023-05-02T22:28:07.161Z,100771.41
2023-05-02T22:32:08.949Z,100764.66
2023-05-02T22:36:10.767Z,100766.53
2023-05-02T22:40:12.837Z,100779.19
2023-05-02T22:44:14.669Z,100781.31
2023-05-02T22:48:16.326Z,100780.22
2023-05-02T22:52:18.549Z,100771.13
2023-05-02T22:56:20.876Z,100778.28
2023-05-02T23:00:23.697Z,100775.31
2023-05-02T23:04:25.434Z,100775.28
2023-05-02T23:08:27.121Z,100784.13
2023-05-02T23:12:28.875Z,100779.47
2023-05-02T23:16:31.208Z,100794.88
2023-05-02T23:20:35.203Z,100794.22
2023-05-02T23:24:36.856Z,100794.00
2023-05-02T23:28:39.602Z,100788.94
2023-05-02T23:32:43.216Z,100787.63
2023-05-02T23:36:45.337Z,100787.19
2023-05-02T23:40:47.037Z,100798.31
2023-05-02T23:44:51.077Z,100799.38
2023-05-02T23:48:53.146Z,100803.78
2023-05-02T23:52:54.779Z,100809.66
2023-05-02T23:56:57.011Z,100802.91
